sensor_id;sensor_type;location;lat;lon;timestamp;pressure;altitude;pressure_sealevel;temperature;humidity
6387;BME280;3226;42.162;24.756;2023-02-28T00:01:10;100203.31;;;9.59;76.86
6387;BME280;3226;42.162;24.756;2023-02-28T00:03:38;100194.25;;;9.38;77.39
6387;BME280;3226;42.162;24.756;2023-02-28T00:06:07;100201.28;;;9.38;77.93
6387;BME280;3226;42.162;24.756;2023-02-28T00:08:37;100210.22;;;9.47;77.37
6387;BME280;3226;42.162;24.756;2023-02-28T00:11:07;100175.75;;;9.29;76.57
6387;BME280;3226;42.162;24.756;2023-02-28T00:13:39;100214.94;;;9.42;77.30
6387;BME280;3226;42.162;24.756;2023-02-28T00:16:09;100205.44;;;9.28;77.45
6387;BME280;3226;42.162;24.756;2023-02-28T00:18:38;100189.88;;;9.13;77.42
6387;BME280;3226;42.162;24.756;2023-02-28T00:21:07;100210.84;;;8.99;78.83
6387;BME280;3226;42.162;24.756;2023-02-28T00:23:37;100204.59;;;9.01;79.14
6387;BME280;3226;42.162;24.756;2023-02-28T00:26:05;100161.00;;;8.76;78.78
6387;BME280;3226;42.162;24.756;2023-02-28T00:28:33;100193.50;;;8.97;78.90
6387;BME280;3226;42.162;24.756;2023-02-28T00:31:02;100194.44;;;8.96;78.73
6387;BME280;3226;42.162;24.756;2023-02-28T00:33:31;100172.94;;;8.93;78.32
6387;BME280;3226;42.162;24.756;2023-02-28T00:36:04;100202.25;;;8.71;80.19
6387;BME280;3226;42.162;24.756;2023-02-28T00:38:32;100195.66;;;8.65;80.52
6387;BME280;3226;42.162;24.756;2023-02-28T00:41:02;100182.91;;;8.60;81.00
6387;BME280;3226;42.162;24.756;2023-02-28T00:43:32;100176.94;;;8.58;81.84
6387;BME280;3226;42.162;24.756;2023-02-28T00:46:01;100177.63;;;8.75;80.55
6387;BME280;3226;42.162;24.756;2023-02-28T00:48:29;100159.34;;;8.75;80.05
6387;BME280;3226;42.162;24.756;2023-02-28T00:50:58;100141.13;;;8.60;79.51
6387;BME280;3226;42.162;24.756;2023-02-28T00:53:26;100201.88;;;9.03;79.69
6387;BME280;3226;42.162;24.756;2023-02-28T00:55:54;100199.06;;;9.19;78.93
6387;BME280;3226;42.162;24.756;2023-02-28T00:58:23;100192.78;;;9.21;78.75
6387;BME280;3226;42.162;24.756;2023-02-28T01:00:52;100191.63;;;9.25;78.55
6387;BME280;3226;42.162;24.756;2023-02-28T01:03:21;100196.78;;;9.27;78.36
6387;BME280;3226;42.162;24.756;2023-02-28T01:05:49;100211.09;;;9.21;78.30
6387;BME280;3226;42.162;24.756;2023-02-28T01:08:19;100190.69;;;9.26;77.90
6387;BME280;3226;42.162;24.756;2023-02-28T01:10:47;100216.94;;;9.38;77.60
6387;BME280;3226;42.162;24.756;2023-02-28T01:13:16;100220.91;;;9.31;77.90
6387;BME280;3226;42.162;24.756;2023-02-28T01:15:48;100217.34;;;9.45;77.48
6387;BME280;3226;42.162;24.756;2023-02-28T01:18:18;100214.34;;;9.38;77.67
6387;BME280;3226;42.162;24.756;2023-02-28T01:20:46;100218.28;;;9.18;78.25
6387;BME280;3226;42.162;24.756;2023-02-28T01:23:14;100235.13;;;9.26;78.51
6387;BME280;3226;42.162;24.756;2023-02-28T01:25:42;100237.31;;;9.46;77.68
6387;BME280;3226;42.162;24.756;2023-02-28T01:28:10;100231.47;;;9.42;77.42
6387;BME280;3226;42.162;24.756;2023-02-28T01:30:38;100225.72;;;9.24;78.39
6387;BME280;3226;42.162;24.756;2023-02-28T01:33:07;100237.22;;;9.21;78.56
6387;BME280;3226;42.162;24.756;2023-02-28T01:35:36;100208.44;;;8.95;78.97
6387;BME280;3226;42.162;24.756;2023-02-28T01:38:04;100227.22;;;8.75;80.12
6387;BME280;3226;42.162;24.756;2023-02-28T01:40:47;100233.63;;;8.56;80.78
6387;BME280;3226;42.162;24.756;2023-02-28T01:43:21;100244.19;;;8.95;79.91
6387;BME280;3226;42.162;24.756;2023-02-28T01:45:50;100252.78;;;9.10;78.99
6387;BME280;3226;42.162;24.756;2023-02-28T01:48:21;100222.84;;;8.88;79.49
6387;BME280;3226;42.162;24.756;2023-02-28T01:50:51;100258.91;;;8.83;80.79
6387;BME280;3226;42.162;24.756;2023-02-28T01:53:26;100258.72;;;8.99;79.77
6387;BME280;3226;42.162;24.756;2023-02-28T01:55:57;100270.66;;;9.16;79.51
6387;BME280;3226;42.162;24.756;2023-02-28T01:58:25;100244.31;;;9.19;78.42
6387;BME280;3226;42.162;24.756;2023-02-28T02:00:54;100277.66;;;9.29;78.07
6387;BME280;3226;42.162;24.756;2023-02-28T02:03:23;100279.16;;;9.20;78.11
6387;BME280;3226;42.162;24.756;2023-02-28T02:05:51;100285.41;;;9.17;78.38
6387;BME280;3226;42.162;24.756;2023-02-28T02:08:21;100293.00;;;9.07;78.47
6387;BME280;3226;42.162;24.756;2023-02-28T02:10:52;100281.72;;;9.07;78.20
6387;BME280;3226;42.162;24.756;2023-02-28T02:13:42;100291.13;;;9.09;78.61
6387;BME280;3226;42.162;24.756;2023-02-28T02:16:22;100281.81;;;9.05;84.39
6387;BME280;3226;42.162;24.756;2023-02-28T02:18:57;100289.16;;;9.13;85.81
6387;BME280;3226;42.162;24.756;2023-02-28T02:24:51;100284.34;;;9.07;89.23
6387;BME280;3226;42.162;24.756;2023-02-28T02:27:39;100286.97;;;9.07;90.50
6387;BME280;3226;42.162;24.756;2023-02-28T02:34:11;100296.19;;;8.85;92.68
6387;BME280;3226;42.162;24.756;2023-02-28T02:36:44;100257.66;;;8.61;93.45
6387;BME280;3226;42.162;24.756;2023-02-28T02:39:19;100309.25;;;8.85;93.43
6387;BME280;3226;42.162;24.756;2023-02-28T02:41:54;100282.81;;;8.77;92.17
6387;BME280;3226;42.162;24.756;2023-02-28T02:44:26;100306.34;;;8.90;92.15
6387;BME280;3226;42.162;24.756;2023-02-28T02:47:01;100304.56;;;8.90;91.75
6387;BME280;3226;42.162;24.756;2023-02-28T02:49:33;100309.19;;;9.00;90.97
6387;BME280;3226;42.162;24.756;2023-02-28T02:52:04;100321.13;;;9.04;90.33
6387;BME280;3226;42.162;24.756;2023-02-28T02:54:35;100313.72;;;9.10;89.21
6387;BME280;3226;42.162;24.756;2023-02-28T02:57:07;100318.31;;;9.07;89.24
6387;BME280;3226;42.162;24.756;2023-02-28T02:59:38;100309.94;;;9.02;88.25
6387;BME280;3226;42.162;24.756;2023-02-28T03:02:10;100295.88;;;8.77;87.81
6387;BME280;3226;42.162;24.756;2023-02-28T03:04:43;100316.09;;;8.73;88.14
6387;BME280;3226;42.162;24.756;2023-02-28T03:07:13;100343.06;;;8.74;89.22
6387;BME280;3226;42.162;24.756;2023-02-28T03:09:49;100282.13;;;8.46;89.06
6387;BME280;3226;42.162;24.756;2023-02-28T03:12:18;100350.44;;;8.94;88.47
6387;BME280;3226;42.162;24.756;2023-02-28T03:14:55;100340.41;;;8.61;89.45
6387;BME280;3226;42.162;24.756;2023-02-28T03:17:32;100348.50;;;8.71;90.13
6387;BME280;3226;42.162;24.756;2023-02-28T03:20:11;100333.59;;;8.58;89.63
6387;BME280;3226;42.162;24.756;2023-02-28T03:22:51;100351.66;;;8.61;91.39
6387;BME280;3226;42.162;24.756;2023-02-28T03:25:30;100353.94;;;8.53;91.38
6387;BME280;3226;42.162;24.756;2023-02-28T03:28:04;100356.88;;;8.61;91.49
6387;BME280;3226;42.162;24.756;2023-02-28T03:30:40;100363.03;;;8.75;90.74
6387;BME280;3226;42.162;24.756;2023-02-28T03:33:12;100360.31;;;8.76;90.36
6387;BME280;3226;42.162;24.756;2023-02-28T03:35:45;100363.09;;;8.88;89.75
6387;BME280;3226;42.162;24.756;2023-02-28T03:38:20;100374.50;;;8.72;90.37
6387;BME280;3226;42.162;24.756;2023-02-28T03:40:53;100357.94;;;8.86;89.77
6387;BME280;3226;42.162;24.756;2023-02-28T03:43:26;100338.59;;;8.61;89.86
6387;BME280;3226;42.162;24.756;2023-02-28T03:45:56;100356.81;;;8.63;90.69
6387;BME280;3226;42.162;24.756;2023-02-28T03:48:33;100368.78;;;8.52;91.88
6387;BME280;3226;42.162;24.756;2023-02-28T03:51:08;100371.25;;;8.54;91.99
6387;BME280;3226;42.162;24.756;2023-02-28T03:53:41;100375.16;;;8.61;91.38
6387;BME280;3226;42.162;24.756;2023-02-28T03:56:15;100383.31;;;8.57;91.80
6387;BME280;3226;42.162;24.756;2023-02-28T03:58:48;100389.91;;;8.19;93.88
6387;BME280;3226;42.162;24.756;2023-02-28T04:01:20;100389.91;;;8.04;95.79
6387;BME280;3226;42.162;24.756;2023-02-28T04:03:50;100391.28;;;8.10;95.18
6387;BME280;3226;42.162;24.756;2023-02-28T04:06:21;100391.22;;;8.12;95.60
6387;BME280;3226;42.162;24.756;2023-02-28T04:08:50;100396.69;;;7.92;95.85
6387;BME280;3226;42.162;24.756;2023-02-28T04:11:24;100372.28;;;7.79;95.87
6387;BME280;3226;42.162;24.756;2023-02-28T04:13:54;100408.88;;;7.92;96.09
6387;BME280;3226;42.162;24.756;2023-02-28T04:16:22;100410.66;;;7.91;95.82
6387;BME280;3226;42.162;24.756;2023-02-28T04:19:01;100417.25;;;7.82;96.24
6387;BME280;3226;42.162;24.756;2023-02-28T04:21:34;100420.53;;;7.86;95.44
6387;BME280;3226;42.162;24.756;2023-02-28T04:24:03;100434.75;;;7.80;95.40
6387;BME280;3226;42.162;24.756;2023-02-28T04:26:32;100376.44;;;7.36;96.07
6387;BME280;3226;42.162;24.756;2023-02-28T04:29:01;100346.78;;;7.08;96.40
6387;BME280;3226;42.162;24.756;2023-02-28T04:31:30;100421.72;;;7.66;96.16
6387;BME280;3226;42.162;24.756;2023-02-28T04:33:59;100418.69;;;7.58;96.24
6387;BME280;3226;42.162;24.756;2023-02-28T04:36:27;100423.16;;;7.56;96.25
6387;BME280;3226;42.162;24.756;2023-02-28T04:38:57;100422.41;;;7.53;96.67
6387;BME280;3226;42.162;24.756;2023-02-28T04:41:25;100418.34;;;7.64;96.36
6387;BME280;3226;42.162;24.756;2023-02-28T04:43:57;100417.28;;;7.52;95.92
6387;BME280;3226;42.162;24.756;2023-02-28T04:46:25;100417.47;;;7.49;96.22
6387;BME280;3226;42.162;24.756;2023-02-28T04:48:53;100422.34;;;7.39;96.19
6387;BME280;3226;42.162;24.756;2023-02-28T04:51:22;100407.06;;;7.33;96.28
6387;BME280;3226;42.162;24.756;2023-02-28T04:53:50;100411.63;;;7.29;96.25
6387;BME280;3226;42.162;24.756;2023-02-28T04:56:19;100420.69;;;7.38;96.42
6387;BME280;3226;42.162;24.756;2023-02-28T04:58:47;100416.75;;;7.31;96.69
6387;BME280;3226;42.162;24.756;2023-02-28T05:01:18;100430.72;;;7.30;96.87
6387;BME280;3226;42.162;24.756;2023-02-28T05:03:47;100433.97;;;7.33;96.34
6387;BME280;3226;42.162;24.756;2023-02-28T05:06:16;100444.22;;;7.36;96.78
6387;BME280;3226;42.162;24.756;2023-02-28T05:08:44;100452.03;;;7.36;96.42
6387;BME280;3226;42.162;24.756;2023-02-28T05:11:16;100443.72;;;7.46;96.34
6387;BME280;3226;42.162;24.756;2023-02-28T05:13:46;100453.28;;;7.76;94.68
6387;BME280;3226;42.162;24.756;2023-02-28T05:16:15;100395.88;;;7.47;93.03
6387;BME280;3226;42.162;24.756;2023-02-28T05:18:44;100452.59;;;7.88;93.51
6387;BME280;3226;42.162;24.756;2023-02-28T05:21:25;100458.91;;;7.84;92.90
6387;BME280;3226;42.162;24.756;2023-02-28T05:23:54;100453.41;;;7.89;92.10
6387;BME280;3226;42.162;24.756;2023-02-28T05:26:23;100455.25;;;7.72;93.57
6387;BME280;3226;42.162;24.756;2023-02-28T05:28:53;100376.91;;;7.29;93.00
6387;BME280;3226;42.162;24.756;2023-02-28T05:31:21;100461.56;;;7.68;93.13
6387;BME280;3226;42.162;24.756;2023-02-28T05:33:49;100474.66;;;7.66;94.08
6387;BME280;3226;42.162;24.756;2023-02-28T05:36:17;100464.94;;;7.85;92.95
6387;BME280;3226;42.162;24.756;2023-02-28T05:38:46;100482.59;;;7.65;93.16
6387;BME280;3226;42.162;24.756;2023-02-28T05:41:16;100483.91;;;7.72;93.39
6387;BME280;3226;42.162;24.756;2023-02-28T05:43:46;100480.91;;;7.94;92.31
6387;BME280;3226;42.162;24.756;2023-02-28T05:46:16;100488.38;;;8.01;91.13
6387;BME280;3226;42.162;24.756;2023-02-28T05:48:47;100458.78;;;7.71;91.04
6387;BME280;3226;42.162;24.756;2023-02-28T05:51:16;100498.50;;;7.91;90.51
6387;BME280;3226;42.162;24.756;2023-02-28T05:53:44;100450.25;;;7.53;91.69
6387;BME280;3226;42.162;24.756;2023-02-28T05:56:13;100449.91;;;7.43;92.59
6387;BME280;3226;42.162;24.756;2023-02-28T05:58:41;100478.50;;;7.61;93.25
6387;BME280;3226;42.162;24.756;2023-02-28T06:04:09;100496.19;;;8.01;91.29
6387;BME280;3226;42.162;24.756;2023-02-28T06:06:51;100487.72;;;7.66;91.73
6387;BME280;3226;42.162;24.756;2023-02-28T06:09:19;100505.72;;;7.71;92.21
6387;BME280;3226;42.162;24.756;2023-02-28T06:11:47;100506.06;;;7.95;91.29
6387;BME280;3226;42.162;24.756;2023-02-28T06:14:17;100504.78;;;8.03;90.69
6387;BME280;3226;42.162;24.756;2023-02-28T06:16:47;100505.81;;;8.15;90.57
6387;BME280;3226;42.162;24.756;2023-02-28T06:19:15;100511.78;;;8.17;89.62
6387;BME280;3226;42.162;24.756;2023-02-28T06:21:43;100514.13;;;8.21;89.47
6387;BME280;3226;42.162;24.756;2023-02-28T06:24:11;100503.63;;;8.37;88.22
6387;BME280;3226;42.162;24.756;2023-02-28T06:26:39;100515.53;;;8.27;88.88
6387;BME280;3226;42.162;24.756;2023-02-28T06:29:07;100517.19;;;8.14;88.92
6387;BME280;3226;42.162;24.756;2023-02-28T06:31:35;100511.63;;;7.89;91.11
6387;BME280;3226;42.162;24.756;2023-02-28T06:34:06;100518.63;;;7.73;91.20
6387;BME280;3226;42.162;24.756;2023-02-28T06:36:34;100515.88;;;7.60;91.55
6387;BME280;3226;42.162;24.756;2023-02-28T06:39:02;100524.06;;;7.53;92.47
6387;BME280;3226;42.162;24.756;2023-02-28T06:41:30;100522.13;;;7.57;92.37
6387;BME280;3226;42.162;24.756;2023-02-28T06:44:18;100527.41;;;7.56;92.43
6387;BME280;3226;42.162;24.756;2023-02-28T06:46:46;100519.53;;;7.57;92.15
6387;BME280;3226;42.162;24.756;2023-02-28T06:49:16;100513.22;;;7.45;92.87
6387;BME280;3226;42.162;24.756;2023-02-28T06:51:44;100518.09;;;7.51;92.51
6387;BME280;3226;42.162;24.756;2023-02-28T06:54:13;100509.19;;;7.23;93.06
6387;BME280;3226;42.162;24.756;2023-02-28T06:56:41;100513.81;;;7.18;94.33
6387;BME280;3226;42.162;24.756;2023-02-28T06:59:09;100502.38;;;7.05;94.40
6387;BME280;3226;42.162;24.756;2023-02-28T07:01:37;100540.97;;;7.46;94.29
6387;BME280;3226;42.162;24.756;2023-02-28T07:04:06;100533.50;;;7.87;92.04
6387;BME280;3226;42.162;24.756;2023-02-28T07:06:36;100540.50;;;7.86;91.44
6387;BME280;3226;42.162;24.756;2023-02-28T07:09:04;100539.22;;;7.93;90.69
6387;BME280;3226;42.162;24.756;2023-02-28T07:11:32;100497.75;;;7.58;90.97
6387;BME280;3226;42.162;24.756;2023-02-28T07:14:00;100545.47;;;7.59;91.99
6387;BME280;3226;42.162;24.756;2023-02-28T07:16:28;100532.88;;;7.67;91.81
6387;BME280;3226;42.162;24.756;2023-02-28T07:18:56;100535.16;;;7.41;93.25
6387;BME280;3226;42.162;24.756;2023-02-28T07:21:24;100483.91;;;7.09;93.93
6387;BME280;3226;42.162;24.756;2023-02-28T07:23:55;100547.94;;;7.62;93.25
6387;BME280;3226;42.162;24.756;2023-02-28T07:26:24;100525.75;;;7.22;93.45
6387;BME280;3226;42.162;24.756;2023-02-28T07:28:52;100550.28;;;7.34;94.27
6387;BME280;3226;42.162;24.756;2023-02-28T07:31:20;100553.59;;;7.38;93.58
6387;BME280;3226;42.162;24.756;2023-02-28T07:33:49;100520.03;;;7.00;94.17
6387;BME280;3226;42.162;24.756;2023-02-28T07:36:17;100559.72;;;7.53;93.57
6387;BME280;3226;42.162;24.756;2023-02-28T07:38:47;100550.97;;;7.70;91.68
6387;BME280;3226;42.162;24.756;2023-02-28T07:41:19;100568.47;;;7.68;91.51
6387;BME280;3226;42.162;24.756;2023-02-28T07:43:48;100556.19;;;7.70;92.15
6387;BME280;3226;42.162;24.756;2023-02-28T07:46:16;100568.09;;;7.90;91.16
6387;BME280;3226;42.162;24.756;2023-02-28T07:48:46;100558.69;;;7.56;91.96
6387;BME280;3226;42.162;24.756;2023-02-28T07:51:14;100548.13;;;7.43;92.96
6387;BME280;3226;42.162;24.756;2023-02-28T07:53:43;100562.06;;;7.42;93.77
6387;BME280;3226;42.162;24.756;2023-02-28T07:56:11;100557.19;;;7.19;94.44
6387;BME280;3226;42.162;24.756;2023-02-28T07:58:40;100518.81;;;6.89;95.86
6387;BME280;3226;42.162;24.756;2023-02-28T08:01:09;100552.63;;;7.07;95.75
6387;BME280;3226;42.162;24.756;2023-02-28T08:03:37;100561.97;;;7.43;94.82
6387;BME280;3226;42.162;24.756;2023-02-28T08:06:07;100563.66;;;7.44;94.54
6387;BME280;3226;42.162;24.756;2023-02-28T08:08:36;100570.19;;;7.03;96.71
6387;BME280;3226;42.162;24.756;2023-02-28T08:11:04;100528.69;;;6.67;97.03
6387;BME280;3226;42.162;24.756;2023-02-28T08:13:32;100569.25;;;7.04;98.07
6387;BME280;3226;42.162;24.756;2023-02-28T08:16:02;100570.56;;;7.45;95.95
6387;BME280;3226;42.162;24.756;2023-02-28T08:18:30;100559.38;;;7.43;94.91
6387;BME280;3226;42.162;24.756;2023-02-28T08:21:04;100558.69;;;7.56;94.26
6387;BME280;3226;42.162;24.756;2023-02-28T08:23:32;100572.47;;;7.58;92.63
6387;BME280;3226;42.162;24.756;2023-02-28T08:26:02;100569.88;;;7.42;93.75
6387;BME280;3226;42.162;24.756;2023-02-28T08:28:31;100566.19;;;7.46;94.17
6387;BME280;3226;42.162;24.756;2023-02-28T08:30:59;100539.88;;;7.18;94.47
6387;BME280;3226;42.162;24.756;2023-02-28T08:33:29;100556.69;;;7.29;94.69
6387;BME280;3226;42.162;24.756;2023-02-28T08:35:58;100560.06;;;7.47;94.62
6387;BME280;3226;42.162;24.756;2023-02-28T08:38:26;100562.50;;;7.66;93.75
6387;BME280;3226;42.162;24.756;2023-02-28T08:40:57;100560.88;;;7.79;92.14
6387;BME280;3226;42.162;24.756;2023-02-28T08:43:26;100571.66;;;7.57;93.32
6387;BME280;3226;42.162;24.756;2023-02-28T08:45:55;100561.56;;;7.51;92.91
6387;BME280;3226;42.162;24.756;2023-02-28T08:48:24;100573.56;;;7.53;93.32
6387;BME280;3226;42.162;24.756;2023-02-28T08:50:57;100579.47;;;7.41;93.71
6387;BME280;3226;42.162;24.756;2023-02-28T08:53:33;100582.59;;;7.48;93.50
6387;BME280;3226;42.162;24.756;2023-02-28T08:56:03;100574.94;;;7.45;93.75
6387;BME280;3226;42.162;24.756;2023-02-28T08:58:32;100581.91;;;7.44;94.65
6387;BME280;3226;42.162;24.756;2023-02-28T09:01:00;100566.78;;;7.67;93.06
6387;BME280;3226;42.162;24.756;2023-02-28T09:03:28;100584.06;;;8.00;91.88
6387;BME280;3226;42.162;24.756;2023-02-28T09:05:59;100575.50;;;7.82;91.27
6387;BME280;3226;42.162;24.756;2023-02-28T09:08:29;100575.00;;;7.75;92.18
6387;BME280;3226;42.162;24.756;2023-02-28T09:10:58;100580.22;;;7.59;92.45
6387;BME280;3226;42.162;24.756;2023-02-28T09:13:28;100584.16;;;7.66;92.58
6387;BME280;3226;42.162;24.756;2023-02-28T09:15:58;100581.63;;;7.97;91.40
6387;BME280;3226;42.162;24.756;2023-02-28T09:18:26;100548.34;;;7.70;90.27
6387;BME280;3226;42.162;24.756;2023-02-28T09:20:55;100587.88;;;7.62;91.40
6387;BME280;3226;42.162;24.756;2023-02-28T09:23:25;100576.28;;;7.68;92.87
6387;BME280;3226;42.162;24.756;2023-02-28T09:25:54;100574.03;;;7.62;92.68
6387;BME280;3226;42.162;24.756;2023-02-28T09:28:23;100575.09;;;7.58;93.21
6387;BME280;3226;42.162;24.756;2023-02-28T09:30:53;100560.47;;;7.39;94.42
6387;BME280;3226;42.162;24.756;2023-02-28T09:33:21;100553.28;;;7.75;92.89
6387;BME280;3226;42.162;24.756;2023-02-28T09:35:50;100553.63;;;7.85;92.32
6387;BME280;3226;42.162;24.756;2023-02-28T09:38:19;100551.53;;;7.75;91.74
6387;BME280;3226;42.162;24.756;2023-02-28T09:40:50;100558.94;;;7.83;91.21
6387;BME280;3226;42.162;24.756;2023-02-28T09:43:22;100534.53;;;7.84;90.89
6387;BME280;3226;42.162;24.756;2023-02-28T09:45:54;100561.78;;;7.78;91.37
6387;BME280;3226;42.162;24.756;2023-02-28T09:48:31;100564.78;;;7.87;91.66
6387;BME280;3226;42.162;24.756;2023-02-28T09:51:04;100567.91;;;7.93;91.34
6387;BME280;3226;42.162;24.756;2023-02-28T09:53:35;100556.78;;;7.59;93.31
6387;BME280;3226;42.162;24.756;2023-02-28T09:56:10;100556.56;;;7.78;92.95
6387;BME280;3226;42.162;24.756;2023-02-28T09:58:44;100506.00;;;7.34;93.28
6387;BME280;3226;42.162;24.756;2023-02-28T10:01:21;100556.78;;;7.43;94.42
6387;BME280;3226;42.162;24.756;2023-02-28T10:03:56;100538.94;;;7.35;96.06
6387;BME280;3226;42.162;24.756;2023-02-28T10:06:29;100513.06;;;7.32;95.84
6387;BME280;3226;42.162;24.756;2023-02-28T10:09:02;100524.06;;;7.53;95.27
6387;BME280;3226;42.162;24.756;2023-02-28T10:11:34;100495.09;;;7.44;95.50
6387;BME280;3226;42.162;24.756;2023-02-28T10:14:07;100527.09;;;7.46;94.83
6387;BME280;3226;42.162;24.756;2023-02-28T10:16:40;100532.63;;;7.40;94.99
6387;BME280;3226;42.162;24.756;2023-02-28T10:19:16;100508.53;;;7.36;95.84
6387;BME280;3226;42.162;24.756;2023-02-28T10:21:50;100540.94;;;7.78;93.92
6387;BME280;3226;42.162;24.756;2023-02-28T10:24:28;100533.28;;;7.75;93.58
6387;BME280;3226;42.162;24.756;2023-02-28T10:27:00;100522.69;;;7.78;93.82
6387;BME280;3226;42.162;24.756;2023-02-28T10:29:31;100520.03;;;7.94;92.27
6387;BME280;3226;42.162;24.756;2023-02-28T10:32:02;100516.56;;;7.63;94.11
6387;BME280;3226;42.162;24.756;2023-02-28T10:34:31;100509.03;;;7.89;93.23
6387;BME280;3226;42.162;24.756;2023-02-28T10:36:59;100515.28;;;7.71;93.31
6387;BME280;3226;42.162;24.756;2023-02-28T10:39:38;100511.09;;;7.68;93.92
6387;BME280;3226;42.162;24.756;2023-02-28T10:42:21;100513.72;;;7.68;93.97
6387;BME280;3226;42.162;24.756;2023-02-28T10:45:06;100489.06;;;7.58;93.78
6387;BME280;3226;42.162;24.756;2023-02-28T10:47:40;100513.38;;;7.58;94.72
6387;BME280;3226;42.162;24.756;2023-02-28T10:50:27;100501.06;;;7.30;95.70
6387;BME280;3226;42.162;24.756;2023-02-28T10:53:07;100503.53;;;7.47;96.11
6387;BME280;3226;42.162;24.756;2023-02-28T10:55:36;100507.38;;;7.72;95.24
6387;BME280;3226;42.162;24.756;2023-02-28T10:58:20;100503.53;;;7.63;94.90
6387;BME280;3226;42.162;24.756;2023-02-28T11:00:49;100507.47;;;7.71;94.82
6387;BME280;3226;42.162;24.756;2023-02-28T11:03:29;100502.81;;;7.76;93.85
6387;BME280;3226;42.162;24.756;2023-02-28T11:05:59;100499.00;;;7.67;94.41
6387;BME280;3226;42.162;24.756;2023-02-28T11:08:32;100475.09;;;7.59;93.77
6387;BME280;3226;42.162;24.756;2023-02-28T11:11:04;100499.03;;;7.35;95.32
6387;BME280;3226;42.162;24.756;2023-02-28T11:13:35;100503.50;;;7.33;96.35
6387;BME280;3226;42.162;24.756;2023-02-28T11:16:06;100501.28;;;7.25;97.45
6387;BME280;3226;42.162;24.756;2023-02-28T11:18:39;100490.19;;;7.21;98.66
6387;BME280;3226;42.162;24.756;2023-02-28T11:21:09;100491.44;;;7.46;98.26
6387;BME280;3226;42.162;24.756;2023-02-28T11:23:43;100457.00;;;7.09;99.07
6387;BME280;3226;42.162;24.756;2023-02-28T11:26:11;100493.31;;;7.28;100.00
6387;BME280;3226;42.162;24.756;2023-02-28T11:28:42;100492.78;;;7.05;100.00
6387;BME280;3226;42.162;24.756;2023-02-28T11:31:17;100463.06;;;6.77;100.00
6387;BME280;3226;42.162;24.756;2023-02-28T11:33:49;100486.59;;;6.92;100.00
6387;BME280;3226;42.162;24.756;2023-02-28T11:36:20;100490.09;;;6.75;100.00
6387;BME280;3226;42.162;24.756;2023-02-28T11:38:52;100489.00;;;6.79;100.00
6387;BME280;3226;42.162;24.756;2023-02-28T11:41:39;100488.75;;;6.84;100.00
6387;BME280;3226;42.162;24.756;2023-02-28T11:44:23;100489.75;;;6.81;100.00
6387;BME280;3226;42.162;24.756;2023-02-28T11:46:59;100483.78;;;6.79;100.00
6387;BME280;3226;42.162;24.756;2023-02-28T11:49:35;100433.38;;;6.64;100.00
6387;BME280;3226;42.162;24.756;2023-02-28T11:52:14;100490.28;;;7.04;100.00
6387;BME280;3226;42.162;24.756;2023-02-28T11:55:05;100483.56;;;7.00;100.00
6387;BME280;3226;42.162;24.756;2023-02-28T11:57:45;100481.47;;;6.90;100.00
6387;BME280;3226;42.162;24.756;2023-02-28T12:00:33;100483.75;;;6.97;100.00
6387;BME280;3226;42.162;24.756;2023-02-28T12:03:13;100479.78;;;7.21;100.00
6387;BME280;3226;42.162;24.756;2023-02-28T12:05:45;100480.63;;;7.38;100.00
6387;BME280;3226;42.162;24.756;2023-02-28T12:08:27;100462.38;;;7.38;100.00
6387;BME280;3226;42.162;24.756;2023-02-28T12:11:06;100472.59;;;7.57;100.00
6387;BME280;3226;42.162;24.756;2023-02-28T12:13:46;100451.69;;;7.73;100.00
6387;BME280;3226;42.162;24.756;2023-02-28T12:16:41;100469.41;;;7.82;100.00
6387;BME280;3226;42.162;24.756;2023-02-28T12:19:17;100471.84;;;7.86;100.00
6387;BME280;3226;42.162;24.756;2023-02-28T12:22:10;100470.56;;;7.62;100.00
6387;BME280;3226;42.162;24.756;2023-02-28T12:24:50;100462.31;;;7.70;100.00
6387;BME280;3226;42.162;24.756;2023-02-28T12:27:25;100469.22;;;7.86;100.00
6387;BME280;3226;42.162;24.756;2023-02-28T12:30:00;100461.38;;;7.71;100.00
6387;BME280;3226;42.162;24.756;2023-02-28T12:32:37;100435.25;;;7.57;100.00
6387;BME280;3226;42.162;24.756;2023-02-28T12:35:11;100468.34;;;7.71;100.00
6387;BME280;3226;42.162;24.756;2023-02-28T12:37:44;100418.47;;;7.46;100.00
6387;BME280;3226;42.162;24.756;2023-02-28T12:40:17;100459.47;;;7.59;100.00
6387;BME280;3226;42.162;24.756;2023-02-28T12:42:49;100453.56;;;7.71;100.00
6387;BME280;3226;42.162;24.756;2023-02-28T12:45:20;100449.84;;;7.75;100.00
6387;BME280;3226;42.162;24.756;2023-02-28T12:47:54;100448.91;;;7.76;100.00
6387;BME280;3226;42.162;24.756;2023-02-28T12:50:25;100448.72;;;7.65;100.00
6387;BME280;3226;42.162;24.756;2023-02-28T12:53:00;100440.53;;;7.71;100.00
6387;BME280;3226;42.162;24.756;2023-02-28T12:55:35;100451.56;;;7.60;100.00
6387;BME280;3226;42.162;24.756;2023-02-28T12:58:12;100424.25;;;7.05;100.00
6387;BME280;3226;42.162;24.756;2023-02-28T13:01:01;100390.41;;;6.73;100.00
6387;BME280;3226;42.162;24.756;2023-02-28T13:03:51;100450.38;;;7.19;100.00
6387;BME280;3226;42.162;24.756;2023-02-28T13:06:44;100459.59;;;7.41;100.00
6387;BME280;3226;42.162;24.756;2023-02-28T13:09:20;100453.84;;;7.50;100.00
6387;BME280;3226;42.162;24.756;2023-02-28T13:11:49;100444.00;;;7.56;100.00
6387;BME280;3226;42.162;24.756;2023-02-28T13:14:24;100401.50;;;6.92;100.00
6387;BME280;3226;42.162;24.756;2023-02-28T13:17:01;100437.44;;;7.02;100.00
6387;BME280;3226;42.162;24.756;2023-02-28T13:19:34;100434.09;;;7.16;100.00
6387;BME280;3226;42.162;24.756;2023-02-28T13:22:04;100437.63;;;7.45;100.00
6387;BME280;3226;42.162;24.756;2023-02-28T13:24:43;100455.09;;;7.59;100.00
6387;BME280;3226;42.162;24.756;2023-02-28T13:33:28;100451.53;;;7.30;100.00
6387;BME280;3226;42.162;24.756;2023-02-28T13:36:23;100450.28;;;7.37;100.00
6387;BME280;3226;42.162;24.756;2023-02-28T13:38:53;100442.66;;;7.18;100.00
6387;BME280;3226;42.162;24.756;2023-02-28T13:41:48;100442.69;;;7.32;100.00
6387;BME280;3226;42.162;24.756;2023-02-28T13:44:18;100446.38;;;7.44;100.00
6387;BME280;3226;42.162;24.756;2023-02-28T13:47:19;100442.09;;;7.43;100.00
6387;BME280;3226;42.162;24.756;2023-02-28T13:49:49;100426.59;;;7.26;100.00
6387;BME280;3226;42.162;24.756;2023-02-28T13:52:22;100445.06;;;7.37;100.00